Time;durP1;ratioP1;P1;durP2;ratioP2;P2;SDS_P1;SDS_P2;PMS_P1;PMS_P2;Temp;Humidity;BMP_temperature;BMP_pressure;BME280_temperature;BME280_humidity;BME280_pressure;Samples;Min_cycle;Max_cycle;Signal;HPM_P1;HPM_P2
2021/11/09 00:02:17;;;;;;;21.90;7.90;;;;;;;11.53;69.21;100730.72;5985569;23;20088;-87
2021/11/09 00:04:50;;;;;;;13.63;7.57;;;;;;;11.51;69.29;100728.13;6010701;23;20087;-86
2021/11/09 00:09:57;;;;;;;18.02;7.10;;;;;;;11.51;68.78;100725.50;6010281;23;19918;-85
2021/11/09 00:12:29;;;;;;;19.20;8.23;;;;;;;11.47;68.99;100740.59;6008434;23;20055;-87
2021/11/09 00:14:58;;;;;;;23.35;9.40;;;;;;;11.44;69.05;100734.63;6010241;23;20020;-86
2021/11/09 00:17:25;;;;;;;21.90;9.27;;;;;;;11.41;69.32;100733.00;6008942;23;20028;-86
2021/11/09 00:19:53;;;;;;;18.75;8.70;;;;;;;11.39;69.39;100731.31;5985752;23;20031;-86
2021/11/09 00:22:25;;;;;;;15.88;7.85;;;;;;;11.37;69.40;100731.41;6008999;23;20047;-85
2021/11/09 00:24:53;;;;;;;22.13;8.50;;;;;;;11.37;69.34;100730.53;5985267;23;20020;-87
2021/11/09 00:27:20;;;;;;;25.27;9.98;;;;;;;11.34;69.50;100721.00;6009916;23;20468;-84
2021/11/09 00:29:47;;;;;;;16.20;8.70;;;;;;;11.34;69.49;100731.53;6009905;23;20472;-87
2021/11/09 00:32:16;;;;;;;23.83;9.05;;;;;;;11.31;69.51;100729.91;6008514;23;20059;-86
2021/11/09 00:34:46;;;;;;;23.75;9.45;;;;;;;11.28;69.72;100730.03;5985284;23;20066;-84
2021/11/09 00:37:14;;;;;;;19.40;9.68;;;;;;;11.28;69.64;100724.75;6008995;23;20024;-86
2021/11/09 00:39:42;;;;;;;23.83;8.60;;;;;;;11.27;69.66;100715.16;6009728;23;20063;-86
2021/11/09 00:42:09;;;;;;;15.77;8.18;;;;;;;11.26;69.83;100708.16;6008649;23;20024;-88
2021/11/09 00:44:37;;;;;;;22.95;8.57;;;;;;;11.25;69.86;100705.59;6009016;23;20066;-86
2021/11/09 00:47:04;;;;;;;20.73;8.77;;;;;;;11.25;69.96;100710.88;6008977;23;20031;-86
2021/11/09 00:49:32;;;;;;;17.83;8.38;;;;;;;11.25;69.92;100710.88;6010366;23;20034;-87
2021/11/09 00:52:01;;;;;;;19.15;9.25;;;;;;;11.25;69.77;100713.50;6009698;23;20098;-86
2021/11/09 00:54:28;;;;;;;20.17;8.75;;;;;;;11.25;69.80;100708.25;6008482;23;20024;-86
2021/11/09 00:56:55;;;;;;;29.77;9.88;;;;;;;11.26;69.75;100713.44;6008558;23;20059;-87
2021/11/09 00:59:21;;;;;;;19.00;9.07;;;;;;;11.27;69.86;100711.66;6009983;23;20062;-86
2021/11/09 01:01:48;;;;;;;23.85;9.38;;;;;;;11.26;69.81;100707.31;6010286;23;20024;-85
2021/11/09 01:04:15;;;;;;;19.13;9.77;;;;;;;11.24;69.74;100704.72;6008224;23;20028;-85
2021/11/09 01:06:41;;;;;;;20.33;9.07;;;;;;;11.21;69.97;100704.84;5985838;23;20059;-86
2021/11/09 01:09:08;;;;;;;22.02;10.40;;;;;;;11.18;69.38;100711.13;6008254;23;20024;-86
2021/11/09 01:11:35;;;;;;;20.92;9.50;;;;;;;11.16;69.80;100705.09;5985630;23;20087;-85
2021/11/09 01:14:03;;;;;;;25.05;10.18;;;;;;;11.14;69.92;100709.53;6010070;23;20024;-86
2021/11/09 01:16:30;;;;;;;16.52;8.68;;;;;;;11.13;70.11;100713.13;6008290;23;20059;-86
2021/11/09 01:19:00;;;;;;;20.77;9.80;;;;;;;11.12;70.14;100702.63;6008316;23;20052;-86
2021/11/09 01:21:27;;;;;;;22.50;9.90;;;;;;;11.13;70.27;100701.72;6010400;23;20023;-85
2021/11/09 01:23:55;;;;;;;22.00;9.73;;;;;;;11.12;70.12;100708.78;5985318;23;20237;-85
2021/11/09 01:26:22;;;;;;;23.08;9.52;;;;;;;11.13;70.15;100701.72;6011909;23;20355;-87
2021/11/09 01:28:52;;;;;;;24.15;9.77;;;;;;;11.12;69.99;100700.00;6009961;23;20023;-86
2021/11/09 01:31:19;;;;;;;20.77;9.77;;;;;;;11.11;70.09;100703.56;5986862;23;20028;-85
2021/11/09 01:33:47;;;;;;;24.08;10.18;;;;;;;11.10;69.94;100699.22;6011172;23;20020;-86
2021/11/09 01:36:14;;;;;;;18.75;9.68;;;;;;;11.08;69.96;100705.44;6011535;23;20063;-86
2021/11/09 01:38:41;;;;;;;20.58;9.82;;;;;;;11.07;70.23;100698.41;6011657;23;20030;-86
2021/11/09 01:41:10;;;;;;;22.10;9.65;;;;;;;11.07;70.07;100703.69;6011712;23;20062;-87
2021/11/09 01:43:38;;;;;;;23.55;9.93;;;;;;;11.07;70.09;100698.41;6011121;23;20094;-86
2021/11/09 01:46:06;;;;;;;18.90;9.27;;;;;;;11.07;70.18;100706.31;6010401;23;20050;-88
2021/11/09 01:48:35;;;;;;;18.25;8.60;;;;;;;11.07;70.23;100702.84;5986662;23;20063;-86
2021/11/09 01:51:05;;;;;;;21.83;8.95;;;;;;;11.06;70.14;100711.66;6010304;23;20055;-87
2021/11/09 01:53:35;;;;;;;23.30;9.13;;;;;;;11.05;69.90;100705.56;5986666;23;20031;-88
2021/11/09 01:56:06;;;;;;;22.20;9.40;;;;;;;11.04;69.77;100714.38;6010232;23;20413;-87
2021/11/09 01:58:33;;;;;;;22.65;8.43;;;;;;;11.03;69.53;100717.91;6011600;23;20094;-88
2021/11/09 02:01:03;;;;;;;18.10;8.63;;;;;;;10.99;69.50;100724.25;6011122;23;20059;-86
2021/11/09 02:03:32;;;;;;;24.25;9.15;;;;;;;10.96;69.43;100719.13;6009827;23;20023;-87
2021/11/09 02:05:59;;;;;;;25.45;9.40;;;;;;;10.92;69.46;100718.38;6009811;23;20070;-86
2021/11/09 02:08:26;;;;;;;16.92;8.93;;;;;;;10.87;69.21;100722.16;6011341;23;20560;-87
2021/11/09 02:10:53;;;;;;;19.83;9.32;;;;;;;10.84;69.42;100727.56;6010048;23;20083;-86
2021/11/09 02:13:22;;;;;;;20.02;9.20;;;;;;;10.76;69.48;100722.63;6011256;23;20033;-85
2021/11/09 02:15:50;;;;;;;19.20;9.38;;;;;;;10.70;69.39;100718.47;6009707;23;20023;-86
2021/11/09 02:18:19;;;;;;;20.38;8.65;;;;;;;10.64;69.43;100719.56;5986731;23;20055;-86
2021/11/09 02:21:15;;;;;;;20.42;9.25;;;;;;;10.55;69.87;100728.69;5986785;23;20063;-85
2021/11/09 02:23:44;;;;;;;20.90;10.18;;;;;;;10.52;69.44;100723.56;5969513;23;20023;-83
2021/11/09 02:26:15;;;;;;;19.33;8.93;;;;;;;10.50;69.62;100729.81;5986641;23;20074;-86
2021/11/09 02:28:43;;;;;;;22.70;9.38;;;;;;;10.44;69.47;100728.28;6011334;23;20059;-86
2021/11/09 02:31:10;;;;;;;21.08;8.88;;;;;;;10.40;69.89;100724.03;6009420;23;20070;-86
2021/11/09 02:33:37;;;;;;;26.17;9.82;;;;;;;10.36;69.84;100718.03;6011354;23;20019;-85
2021/11/09 02:36:04;;;;;;;23.23;9.52;;;;;;;10.34;70.04;100724.28;5986305;23;20024;-86
2021/11/09 02:38:31;;;;;;;26.88;8.95;;;;;;;10.30;69.89;100720.91;5986287;23;20055;-87
2021/11/09 02:40:59;;;;;;;22.23;9.00;;;;;;;10.28;70.05;100726.25;6010938;23;20034;-86
2021/11/09 02:43:27;;;;;;;21.13;9.38;;;;;;;10.26;69.94;100730.72;6011023;23;20062;-87
2021/11/09 02:48:27;;;;;;;21.38;8.57;;;;;;;10.22;70.08;100731.75;6010721;23;20023;-85
2021/11/09 02:50:59;;;;;;;22.50;8.43;;;;;;;10.19;70.08;100731.88;6010976;23;20070;-86
2021/11/09 02:53:42;;;;;;;24.10;9.43;;;;;;;10.18;69.87;100730.16;5986116;23;20102;-86
2021/11/09 02:56:22;;;;;;;18.88;7.68;;;;;;;10.14;69.83;100733.84;6009746;23;20052;-85
2021/11/09 03:01:26;;;;;;;21.02;8.48;;;;;;;10.07;69.91;100732.34;6011097;23;20495;-86
2021/11/09 03:04:27;;;;;;;23.25;8.95;;;;;;;10.04;70.04;100733.34;6011087;23;20028;-84
2021/11/09 03:06:50;;;;;;;23.38;8.88;;;;;;;10.00;69.87;100734.38;6010729;23;20027;-85
2021/11/09 03:09:32;;;;;;;24.08;8.93;;;;;;;9.98;69.80;100723.06;6009491;23;20034;-87
2021/11/09 03:12:02;;;;;;;16.35;9.00;;;;;;;9.95;70.13;100734.56;6009192;23;20079;-85
2021/11/09 03:14:29;;;;;;;21.75;7.80;;;;;;;9.92;69.86;100739.94;5986148;23;20028;-85
2021/11/09 03:16:59;;;;;;;23.10;8.50;;;;;;;9.88;70.16;100744.44;6011061;23;20023;-86
2021/11/09 03:44:34;;;;;;;19.42;7.93;;;;;;;9.64;70.30;100752.34;6010207;23;20467;-85
2021/11/09 03:47:07;;;;;;;20.13;8.32;;;;;;;9.60;70.46;100753.38;6010362;23;20458;-85
2021/11/09 03:49:35;;;;;;;21.98;7.95;;;;;;;9.58;70.21;100736.81;6008147;23;20030;-84
2021/11/09 03:52:20;;;;;;;26.55;7.88;;;;;;;9.51;70.70;100749.31;6007854;23;20028;-86
2021/11/09 03:54:51;;;;;;;16.58;7.65;;;;;;;9.53;70.36;100751.88;6010490;23;20019;-86
2021/11/09 03:57:27;;;;;;;17.90;8.40;;;;;;;9.49;70.15;100753.75;5985794;23;20027;-87
2021/11/09 04:02:32;;;;;;;20.73;7.95;;;;;;;9.46;70.07;100769.63;6010291;23;20039;-84
2021/11/09 04:05:05;;;;;;;21.70;8.38;;;;;;;9.42;70.27;100759.31;6010561;23;20032;-87
2021/11/09 04:10:43;;;;;;;21.02;8.00;;;;;;;9.37;70.31;100764.72;6010218;23;20027;-86
2021/11/09 04:13:23;;;;;;;20.67;8.05;;;;;;;9.34;70.11;100764.81;6008764;23;20032;-86
2021/11/09 04:18:37;;;;;;;23.40;9.05;;;;;;;9.29;70.27;100753.63;6010423;23;20096;-86
2021/11/09 04:26:47;;;;;;;23.38;9.88;;;;;;;9.18;70.52;100757.50;6010425;23;20028;-85
2021/11/09 05:09:39;;;;;;;24.00;10.05;;;;;;;8.71;70.33;100772.19;5946851;23;20083;-86
2021/11/09 05:12:06;;;;;;;24.63;10.00;;;;;;;8.71;70.64;100776.59;5984782;23;20035;-85
2021/11/09 05:14:33;;;;;;;22.20;9.27;;;;;;;8.69;70.24;100784.50;5984548;23;20024;-86
2021/11/09 05:17:01;;;;;;;22.40;9.90;;;;;;;8.68;70.75;100788.00;6007999;23;20405;-87
2021/11/09 05:19:28;;;;;;;23.90;10.38;;;;;;;8.67;70.49;100791.56;6009159;23;20024;-83
2021/11/09 05:22:01;;;;;;;25.58;11.00;;;;;;;8.66;70.51;100791.59;6011752;23;20027;-85
2021/11/09 05:24:31;;;;;;;23.70;9.57;;;;;;;8.62;70.63;100798.72;6016275;23;20048;-85
2021/11/09 05:26:58;;;;;;;26.30;10.70;;;;;;;8.61;70.52;100786.53;6011577;23;20027;-84
2021/11/09 05:29:25;;;;;;;24.75;10.07;;;;;;;8.59;70.42;100783.94;6010531;23;20079;-85
2021/11/09 05:31:57;;;;;;;25.88;10.20;;;;;;;8.58;70.53;100781.34;6011072;23;20354;-85
2021/11/09 05:34:26;;;;;;;25.00;9.43;;;;;;;8.57;70.47;100785.75;5988042;23;20095;-85
2021/11/09 05:36:54;;;;;;;23.05;9.88;;;;;;;8.56;70.60;100785.81;6013468;23;20480;-86
2021/11/09 05:39:30;;;;;;;20.75;10.27;;;;;;;8.55;70.75;100787.56;6013797;23;20479;-86
2021/11/09 05:41:57;;;;;;;24.80;9.38;;;;;;;8.55;70.76;100787.56;6011119;23;20103;-85
2021/11/09 05:44:23;;;;;;;22.13;9.45;;;;;;;8.55;70.48;100795.44;6009572;23;20389;-87
2021/11/09 05:46:50;;;;;;;27.48;9.75;;;;;;;8.54;70.49;100782.38;6009685;23;20043;-85
2021/11/09 05:49:17;;;;;;;31.77;11.63;;;;;;;8.54;70.84;100787.63;6010077;23;20091;-85
2021/11/09 05:51:43;;;;;;;24.38;10.68;;;;;;;8.54;70.49;100790.25;6010686;23;20027;-84
2021/11/09 05:54:11;;;;;;;22.50;9.88;;;;;;;8.53;70.64;100802.53;6012671;23;20091;-85
2021/11/09 05:56:38;;;;;;;30.17;10.55;;;;;;;8.52;70.55;100802.53;6010371;23;20024;-85
2021/11/09 05:59:05;;;;;;;31.45;11.07;;;;;;;8.52;70.56;100799.91;6011903;23;20034;-86
2021/11/09 06:01:31;;;;;;;22.25;10.23;;;;;;;8.50;70.37;100813.06;5987091;23;20465;-83
2021/11/09 06:03:58;;;;;;;27.92;10.30;;;;;;;8.48;70.67;100814.88;6010518;23;20024;-83
2021/11/09 06:06:25;;;;;;;23.75;10.25;;;;;;;8.48;70.70;100812.25;6008262;23;20036;-86
2021/11/09 06:08:51;;;;;;;29.45;10.40;;;;;;;8.48;70.44;100807.00;5984298;23;20024;-84
2021/11/09 06:11:18;;;;;;;25.08;10.40;;;;;;;8.45;70.27;100810.56;6010694;23;20031;-85
2021/11/09 06:13:46;;;;;;;31.92;11.13;;;;;;;8.45;70.08;100821.06;6010160;23;20031;-85
2021/11/09 06:16:13;;;;;;;28.73;10.50;;;;;;;8.42;70.48;100818.56;5986361;23;20535;-86
2021/11/09 06:18:40;;;;;;;28.77;11.40;;;;;;;8.43;70.49;100822.03;6011034;23;20024;-85
2021/11/09 06:21:07;;;;;;;25.70;10.27;;;;;;;8.41;70.54;100811.56;5986191;23;20413;-86
2021/11/09 06:23:34;;;;;;;28.10;9.60;;;;;;;8.40;70.63;100820.38;6011503;23;20037;-84
2021/11/09 06:26:01;;;;;;;28.55;11.02;;;;;;;8.39;70.85;100821.28;6011194;23;20031;-86
2021/11/09 06:28:29;;;;;;;31.20;10.95;;;;;;;8.38;70.70;100816.94;6010070;23;20028;-83
2021/11/09 06:30:55;;;;;;;29.67;10.50;;;;;;;8.38;70.53;100823.94;5986585;23;20023;-83
2021/11/09 06:33:23;;;;;;;26.20;10.63;;;;;;;8.36;70.86;100826.59;6012122;23;20027;-84
2021/11/09 06:35:51;;;;;;;22.60;9.82;;;;;;;8.35;70.91;100830.97;6009557;23;20483;-87
2021/11/09 06:38:19;;;;;;;21.45;9.40;;;;;;;8.34;70.82;100836.31;5985754;23;20028;-84
2021/11/09 06:40:46;;;;;;;28.55;10.07;;;;;;;8.33;70.75;100842.44;5986802;23;20062;-85
2021/11/09 06:43:12;;;;;;;30.00;10.25;;;;;;;8.32;70.66;100838.09;5986949;23;20024;-85
2021/11/09 06:45:39;;;;;;;35.80;10.40;;;;;;;8.31;70.91;100842.50;6009570;23;20030;-83
2021/11/09 06:48:06;;;;;;;27.50;10.10;;;;;;;8.31;70.92;100844.25;5986161;23;20031;-81
2021/11/09 06:50:33;;;;;;;27.92;10.15;;;;;;;8.31;70.86;100845.13;5986365;23;20027;-86
2021/11/09 06:53:01;;;;;;;25.17;9.32;;;;;;;8.32;70.81;100848.59;6011218;23;20035;-85
2021/11/09 06:55:28;;;;;;;26.42;9.88;;;;;;;8.33;70.85;100850.31;6011035;23;20024;-83
2021/11/09 06:57:55;;;;;;;27.25;10.38;;;;;;;8.33;71.10;100851.19;6010586;23;20084;-84
2021/11/09 07:00:25;;;;;;;24.65;9.57;;;;;;;8.34;71.07;100857.28;6010522;23;20032;-84
2021/11/09 07:02:52;;;;;;;22.67;8.57;;;;;;;8.35;70.97;100857.22;6009397;23;20111;-84
2021/11/09 07:05:20;;;;;;;23.13;9.80;;;;;;;8.35;70.76;100849.34;6011003;23;20024;-86
2021/11/09 07:07:46;;;;;;;26.88;9.38;;;;;;;8.36;70.92;100847.59;5986004;23;20123;-85
2021/11/09 07:10:14;;;;;;;28.00;9.68;;;;;;;8.37;70.94;100845.84;5985916;23;20027;-86
2021/11/09 07:12:43;;;;;;;22.80;8.68;;;;;;;8.36;70.74;100842.34;6011486;23;20034;-84
2021/11/09 07:15:11;;;;;;;25.30;9.52;;;;;;;8.35;70.81;100845.88;6010508;23;20020;-87
2021/11/09 07:17:41;;;;;;;25.27;10.15;;;;;;;8.34;70.74;100850.25;6009059;23;20086;-86
2021/11/09 07:20:15;;;;;;;24.88;9.52;;;;;;;8.33;70.80;100847.69;6010091;23;20035;-84
2021/11/09 07:22:42;;;;;;;25.10;9.18;;;;;;;8.35;70.70;100859.84;6011449;23;20035;-81
2021/11/09 07:25:10;;;;;;;26.63;9.23;;;;;;;8.35;70.72;100854.59;6012270;23;20020;-83
2021/11/09 07:27:39;;;;;;;26.30;10.05;;;;;;;8.34;71.01;100855.50;6012570;23;20032;-82
2021/11/09 07:30:08;;;;;;;26.15;9.98;;;;;;;8.34;71.02;100858.13;6012636;23;20028;-81
2021/11/09 07:32:36;;;;;;;28.40;10.00;;;;;;;8.34;70.70;100854.66;5987919;23;20027;-81
2021/11/09 07:35:04;;;;;;;24.33;11.18;;;;;;;8.32;70.77;100859.97;6012074;23;20079;-83
2021/11/09 07:37:31;;;;;;;32.15;10.27;;;;;;;8.31;70.75;100866.13;6012501;23;20027;-81
2021/11/09 07:39:58;;;;;;;29.77;10.75;;;;;;;8.29;71.02;100860.03;6011770;23;20341;-82
2021/11/09 07:42:25;;;;;;;25.58;9.80;;;;;;;8.28;70.95;100874.06;6011649;23;20024;-81
2021/11/09 07:44:53;;;;;;;22.23;9.15;;;;;;;8.29;71.00;100872.28;6009934;23;20024;-83
2021/11/09 07:47:22;;;;;;;35.10;10.52;;;;;;;8.28;71.30;100876.69;6012035;23;20490;-81
2021/11/09 07:49:48;;;;;;;22.88;8.68;;;;;;;8.29;71.23;100874.91;6012080;23;20088;-80
2021/11/09 07:52:15;;;;;;;26.33;9.27;;;;;;;8.30;71.43;100881.91;6012151;23;20083;-83
2021/11/09 07:54:46;;;;;;;26.95;8.20;;;;;;;8.31;71.39;100883.59;6011160;23;20023;-82
2021/11/09 07:57:15;;;;;;;29.48;8.38;;;;;;;8.33;71.45;100885.28;6012395;23;20031;-84
2021/11/09 07:59:56;;;;;;;24.67;9.05;;;;;;;8.37;71.61;100891.28;6011566;23;20333;-85
2021/11/09 08:05:02;;;;;;;23.55;8.27;;;;;;;8.44;71.75;100905.94;6011754;23;20344;-83
2021/11/09 08:07:51;;;;;;;25.33;7.63;;;;;;;8.49;71.38;100911.06;6011789;23;20032;-83
2021/11/09 08:10:18;;;;;;;22.95;7.60;;;;;;;8.54;71.82;100922.31;6011133;23;20027;-83
2021/11/09 08:12:45;;;;;;;16.95;6.72;;;;;;;8.59;71.56;100916.91;6011202;23;20023;-84
2021/11/09 08:15:12;;;;;;;21.40;7.85;;;;;;;8.64;71.51;100911.53;6012027;23;20307;-82
2021/11/09 08:17:38;;;;;;;24.98;7.95;;;;;;;8.68;71.52;100910.53;6011668;23;20031;-84
2021/11/09 08:20:05;;;;;;;27.92;7.38;;;;;;;8.72;71.55;100910.38;5985960;23;20028;-84
2021/11/09 08:22:33;;;;;;;24.85;7.88;;;;;;;8.78;71.31;100913.75;6011662;23;20024;-85
2021/11/09 08:24:59;;;;;;;25.98;7.47;;;;;;;8.81;71.26;100909.25;6009781;23;20028;-83
2021/11/09 08:27:26;;;;;;;25.45;8.00;;;;;;;8.85;71.39;100913.50;6011823;23;20027;-86
2021/11/09 08:29:53;;;;;;;29.80;8.02;;;;;;;8.89;71.46;100916.88;5986154;23;20028;-83
2021/11/09 08:32:20;;;;;;;22.60;7.25;;;;;;;8.94;71.22;100916.75;5986592;23;20035;-83
2021/11/09 08:34:47;;;;;;;20.13;7.72;;;;;;;8.99;71.35;100918.34;5986323;23;20401;-84
2021/11/09 08:37:14;;;;;;;18.88;6.70;;;;;;;9.04;71.04;100919.97;5986884;23;20397;-84
2021/11/09 08:39:43;;;;;;;22.92;7.13;;;;;;;9.07;71.02;100911.97;6010651;23;20032;-81
2021/11/09 08:42:14;;;;;;;25.65;8.05;;;;;;;9.12;71.06;100917.91;6011238;23;20035;-81
2021/11/09 08:45:06;;;;;;;27.00;8.55;;;;;;;9.15;71.14;100915.19;5986505;23;20507;-83
2021/11/09 08:47:32;;;;;;;17.27;7.25;;;;;;;9.19;70.81;100914.19;6010335;23;20024;-83
2021/11/09 08:49:59;;;;;;;21.00;7.75;;;;;;;9.22;70.93;100915.84;6011705;23;20027;-83
2021/11/09 08:52:29;;;;;;;19.83;7.88;;;;;;;9.24;70.90;100914.91;6012523;23;20035;-83
2021/11/09 09:05:27;;;;;;;25.70;8.15;;;;;;;9.44;70.55;100921.28;6010739;23;20020;-84
2021/11/09 09:07:53;;;;;;;23.15;7.28;;;;;;;9.49;70.68;100923.72;6011161;23;20031;-84
2021/11/09 09:10:20;;;;;;;24.15;7.78;;;;;;;9.55;70.56;100922.66;6010612;23;20341;-85
2021/11/09 09:12:47;;;;;;;23.80;8.60;;;;;;;9.58;70.72;100928.72;6011482;23;20028;-84
2021/11/09 09:15:17;;;;;;;29.42;8.43;;;;;;;9.63;70.38;100923.28;6011407;23;20024;-82
2021/11/09 09:17:45;;;;;;;23.55;8.80;;;;;;;9.69;70.73;100928.34;6011428;23;20360;-81
2021/11/09 09:20:17;;;;;;;25.65;8.18;;;;;;;9.75;70.29;100916.72;6009419;23;20028;-82
2021/11/09 09:23:01;;;;;;;22.00;7.60;;;;;;;9.82;70.16;100920.00;6009715;23;20072;-82
2021/11/09 09:25:46;;;;;;;24.67;8.15;;;;;;;9.89;70.16;100932.03;5987353;23;20028;-85
2021/11/09 09:28:39;;;;;;;26.88;8.65;;;;;;;9.95;70.06;100928.31;6012227;23;20063;-84
2021/11/09 09:53:28;;;;;;;27.55;9.60;;;;;;;10.45;69.47;100937.09;6013345;23;20024;-83
2021/11/09 09:55:58;;;;;;;32.53;9.20;;;;;;;10.50;69.52;100938.63;5988135;23;20028;-84
2021/11/09 09:58:25;;;;;;;21.77;8.80;;;;;;;10.56;69.70;100937.56;5987861;23;20104;-84
2021/11/09 10:00:51;;;;;;;19.50;9.20;;;;;;;10.63;69.75;100941.69;6011069;23;20320;-84
2021/11/09 10:03:18;;;;;;;27.55;9.32;;;;;;;10.67;69.24;100938.00;5989152;23;20044;-83
2021/11/09 10:05:45;;;;;;;27.73;9.88;;;;;;;10.73;69.46;100936.88;5988269;23;20056;-85
2021/11/09 10:08:17;;;;;;;19.60;9.38;;;;;;;10.79;68.80;100933.16;6012951;23;20027;-85
2021/11/09 10:10:45;;;;;;;22.50;9.05;;;;;;;10.87;68.99;100931.09;6011378;23;20337;-83
2021/11/09 10:13:20;;;;;;;21.90;9.52;;;;;;;10.93;68.53;100922.09;6012861;23;20027;-85
2021/11/09 10:15:52;;;;;;;25.40;9.77;;;;;;;11.01;69.23;100927.91;6012595;23;20043;-86
2021/11/09 10:18:21;;;;;;;21.15;9.15;;;;;;;11.11;68.62;100927.53;6012298;23;20468;-83
2021/11/09 10:20:51;;;;;;;28.67;9.38;;;;;;;11.18;68.17;100921.13;6012457;23;20060;-86
2021/11/09 10:23:21;;;;;;;21.02;7.97;;;;;;;11.26;68.68;100934.84;6012725;23;20095;-84
2021/11/09 10:25:50;;;;;;;20.55;8.73;;;;;;;11.37;68.77;100928.25;5987727;23;20406;-80
2021/11/09 10:28:21;;;;;;;22.50;8.25;;;;;;;11.47;68.15;100929.56;6012430;23;20520;-84
2021/11/09 10:30:57;;;;;;;27.60;9.75;;;;;;;11.55;66.41;100924.84;6012563;23;20024;-83
2021/11/09 10:33:27;;;;;;;20.05;8.07;;;;;;;11.67;67.67;100922.63;5987591;23;20031;-84
2021/11/09 10:35:55;;;;;;;23.48;8.77;;;;;;;11.75;67.47;100920.50;6012947;23;20082;-83
2021/11/09 10:38:31;;;;;;;23.15;8.73;;;;;;;11.82;66.20;100927.22;6013122;23;20027;-81
2021/11/09 10:41:00;;;;;;;22.13;8.25;;;;;;;11.94;66.35;100914.41;6012381;23;20027;-82
2021/11/09 10:43:28;;;;;;;18.08;7.80;;;;;;;12.03;66.63;100914.00;6012489;23;20024;-84
2021/11/09 10:45:55;;;;;;;22.65;7.95;;;;;;;12.12;66.80;100913.63;6011236;23;20083;-83
2021/11/09 10:48:24;;;;;;;20.83;7.35;;;;;;;12.23;65.77;100907.84;5986573;23;20027;-82
2021/11/09 10:50:57;;;;;;;18.17;7.80;;;;;;;12.35;65.62;100913.50;6011761;23;20535;-84
2021/11/09 10:56:16;;;;;;;18.65;6.38;;;;;;;12.70;66.50;100918.94;6011232;23;19918;-85
2021/11/09 11:04:35;;;;;;;15.85;5.35;;;;;;;13.36;59.96;100911.38;6012023;23;20036;-82
2021/11/09 11:07:07;;;;;;;18.10;5.80;;;;;;;13.66;63.91;100905.50;6010998;23;20027;-83
2021/11/09 11:09:41;;;;;;;16.35;6.15;;;;;;;14.01;61.40;100904.56;5986736;23;20287;-87
2021/11/09 11:12:13;;;;;;;17.88;5.85;;;;;;;14.44;62.48;100895.25;6011054;23;20024;-84
2021/11/09 11:14:45;;;;;;;16.58;5.75;;;;;;;14.89;64.39;100890.13;6012041;23;20540;-85
2021/11/09 11:17:18;;;;;;;11.68;5.28;;;;;;;15.41;64.49;100888.03;6010364;23;20022;-85
2021/11/09 11:19:53;;;;;;;16.75;5.95;;;;;;;15.94;62.56;100887.56;6009460;23;20360;-85
2021/11/09 11:22:22;;;;;;;13.93;5.60;;;;;;;16.48;59.50;100880.69;6010547;23;20246;-82
2021/11/09 11:24:51;;;;;;;12.48;5.00;;;;;;;17.00;59.75;100886.22;6011184;23;20044;-82
2021/11/09 11:27:19;;;;;;;14.02;5.55;;;;;;;17.49;59.65;100886.56;6009146;23;20023;-84
2021/11/09 11:29:46;;;;;;;10.60;4.50;;;;;;;17.97;59.66;100880.59;5987067;23;20070;-86
2021/11/09 11:32:17;;;;;;;12.27;5.13;;;;;;;18.41;54.54;100885.56;6010633;23;20031;-86
2021/11/09 11:34:44;;;;;;;12.40;5.03;;;;;;;18.87;56.63;100885.81;6009055;23;20031;-85
2021/11/09 11:37:18;;;;;;;13.48;4.88;;;;;;;19.27;55.51;100880.19;6010255;23;20377;-83
2021/11/09 11:39:49;;;;;;;12.07;5.57;;;;;;;19.65;53.76;100877.34;6009223;23;20027;-82
2021/11/09 11:42:18;;;;;;;13.38;5.18;;;;;;;20.00;51.61;100872.91;6010171;23;20035;-87
2021/11/09 11:44:55;;;;;;;12.80;4.75;;;;;;;20.29;49.09;100877.75;6009900;23;20087;-84
2021/11/09 11:47:22;;;;;;;8.93;4.35;;;;;;;20.64;52.98;100881.22;6010149;23;20024;-86
2021/11/09 11:50:05;;;;;;;12.07;4.57;;;;;;;20.89;47.57;100873.88;5985771;23;20035;-85
2021/11/09 11:52:43;;;;;;;12.98;4.35;;;;;;;21.18;44.64;100873.25;6010716;23;20035;-82
2021/11/09 11:55:30;;;;;;;14.20;4.60;;;;;;;21.41;44.65;100867.78;5985928;23;20028;-85
2021/11/09 11:58:09;;;;;;;8.55;3.75;;;;;;;21.62;46.44;100867.75;5985825;23;20087;-85
2021/11/09 12:00:42;;;;;;;10.57;4.28;;;;;;;21.83;44.06;100872.25;6010376;23;20024;-85
2021/11/09 12:03:18;;;;;;;8.60;4.07;;;;;;;21.96;40.70;100869.34;6009754;23;20031;-82
2021/11/09 12:05:47;;;;;;;11.23;4.00;;;;;;;22.10;44.42;100862.78;6010641;23;20024;-82
2021/11/09 12:08:16;;;;;;;9.00;3.92;;;;;;;22.14;44.57;100869.56;6009210;23;20038;-87
2021/11/09 12:10:46;;;;;;;9.65;3.67;;;;;;;22.18;43.63;100870.97;6008405;23;20090;-84
2021/11/09 12:13:15;;;;;;;11.27;3.72;;;;;;;22.25;45.36;100861.38;5984430;23;20020;-87
2021/11/09 12:15:55;;;;;;;10.32;4.03;;;;;;;22.34;43.26;100858.88;6009378;23;20464;-85
2021/11/09 12:18:28;;;;;;;12.70;3.70;;;;;;;22.44;39.48;100859.75;6010131;23;20080;-88
2021/11/09 12:20:59;;;;;;;;;;;;;;;22.52;41.18;100857.22;6010330;23;20372;-84
2021/11/09 12:23:26;;;;;;;9.32;3.28;;;;;;;22.66;44.56;100863.19;6008345;23;19918;-86
2021/11/09 12:26:39;;;;;;;9.88;4.18;;;;;;;22.47;33.06;100858.63;6009761;23;20420;-83
2021/11/09 12:29:41;;;;;;;9.07;3.42;;;;;;;22.17;38.50;100857.72;6009845;23;20028;-85
2021/11/09 12:32:34;;;;;;;12.15;3.83;;;;;;;21.57;37.73;100856.59;6009925;23;20460;-86
2021/11/09 12:35:21;;;;;;;9.38;3.90;;;;;;;20.88;38.08;100856.09;6009646;23;20027;-85
2021/11/09 12:38:04;;;;;;;11.57;4.00;;;;;;;20.18;39.21;100855.41;6010408;23;20049;-86
2021/11/09 12:40:39;;;;;;;11.80;3.72;;;;;;;19.58;40.92;100850.25;6010021;23;20038;-83
2021/11/09 12:43:18;;;;;;;10.65;3.63;;;;;;;18.91;40.59;100849.09;5985511;23;20032;-86
2021/11/09 12:45:54;;;;;;;11.05;3.83;;;;;;;18.41;43.29;100842.06;5984757;23;20048;-84
2021/11/09 12:48:32;;;;;;;9.48;3.38;;;;;;;17.87;43.97;100841.41;5984270;23;20038;-86
2021/11/09 12:51:02;;;;;;;10.75;4.38;;;;;;;17.55;45.54;100845.34;6009649;23;20083;-88
2021/11/09 12:53:29;;;;;;;11.90;4.32;;;;;;;17.27;45.49;100841.94;6009767;23;20404;-85
2021/11/09 12:56:15;;;;;;;11.15;3.95;;;;;;;16.95;45.00;100843.13;6009709;23;20026;-87
2021/11/09 12:58:59;;;;;;;10.55;3.85;;;;;;;16.74;46.04;100842.75;6009652;23;20035;-86
2021/11/09 13:01:36;;;;;;;10.60;3.58;;;;;;;16.60;47.34;100843.63;6009202;23;20032;-87
2021/11/09 13:11:53;;;;;;;13.68;4.00;;;;;;;16.13;47.68;100833.28;6009407;23;20032;-85
2021/11/09 13:14:21;;;;;;;9.97;3.50;;;;;;;16.06;47.94;100832.84;6009671;23;20028;-88
2021/11/09 13:17:17;;;;;;;7.47;3.03;;;;;;;15.97;46.76;100841.38;6009521;23;20079;-86
2021/11/09 13:19:45;;;;;;;11.38;3.42;;;;;;;15.93;47.82;100824.78;6009325;23;20464;-86
2021/11/09 13:22:16;;;;;;;12.27;3.63;;;;;;;15.88;47.51;100829.50;6011368;23;20027;-84
2021/11/09 13:24:56;;;;;;;10.60;3.40;;;;;;;15.80;44.41;100829.97;6009810;23;20082;-85
2021/11/09 13:27:35;;;;;;;11.90;3.80;;;;;;;15.81;45.63;100836.16;5986984;23;20027;-85
2021/11/09 13:30:13;;;;;;;9.30;3.47;;;;;;;15.88;46.82;100821.53;6011015;23;20030;-88
2021/11/09 13:32:41;;;;;;;10.10;3.10;;;;;;;15.97;48.34;100821.00;5986408;23;20028;-87
2021/11/09 13:35:24;;;;;;;7.57;3.30;;;;;;;16.01;46.63;100819.00;6011437;23;20024;-87
2021/11/09 13:38:10;;;;;;;8.35;3.63;;;;;;;16.08;47.61;100816.81;6011684;23;20016;-86
2021/11/09 13:40:41;;;;;;;8.32;3.33;;;;;;;16.13;48.04;100820.88;5987391;23;20023;-87
2021/11/09 13:43:13;;;;;;;9.82;3.65;;;;;;;16.26;49.17;100820.09;6011599;23;20087;-85
2021/11/09 13:45:40;;;;;;;12.48;4.03;;;;;;;16.49;50.47;100813.28;6010506;23;20028;-87
2021/11/09 13:48:16;;;;;;;9.27;3.28;;;;;;;16.74;47.82;100819.66;6009109;23;20020;-89
2021/11/09 13:50:45;;;;;;;12.30;3.65;;;;;;;16.99;48.08;100812.69;6009317;23;20102;-87
2021/11/09 13:53:13;;;;;;;9.48;3.45;;;;;;;17.20;48.08;100809.59;6010970;23;20039;-87
2021/11/09 13:55:41;;;;;;;8.07;3.40;;;;;;;17.40;47.90;100810.00;5986010;23;20038;-86